createdAt,value
2023-05-21T00:02:06.743Z,100552.63
2023-05-21T00:04:34.621Z,100537.13
2023-05-21T00:07:02.527Z,100537.81
2023-05-21T00:09:30.720Z,100536.03
2023-05-21T00:11:58.596Z,100528.88
2023-05-21T00:14:26.959Z,100534.72
2023-05-21T00:16:54.920Z,100528.19
2023-05-21T00:19:23.010Z,100528.84
2023-05-21T00:21:51.085Z,100537.34
2023-05-21T00:24:19.246Z,100527.53
2023-05-21T00:26:47.126Z,100521.22
2023-05-21T00:29:15.040Z,100520.91
2023-05-21T00:31:43.045Z,100517.28
2023-05-21T00:34:11.094Z,100516.69
2023-05-21T00:36:40.579Z,100508.53
2023-05-21T00:39:09.124Z,100515.00
2023-05-21T00:41:38.142Z,100507.22
2023-05-21T00:44:07.329Z,100509.69
2023-05-21T00:46:35.756Z,100506.91
2023-05-21T00:49:04.230Z,100494.06
2023-05-21T00:51:32.925Z,100495.00
2023-05-21T00:54:01.260Z,100496.31
2023-05-21T00:56:29.546Z,100499.69
2023-05-21T00:58:58.742Z,100490.78
2023-05-21T01:01:27.916Z,100496.47
2023-05-21T01:03:58.078Z,100491.59
2023-05-21T01:06:26.237Z,100488.34
2023-05-21T01:08:58.286Z,100489.47
2023-05-21T01:11:40.325Z,100482.03
2023-05-21T01:14:10.426Z,100488.66
2023-05-21T01:16:41.139Z,100486.38
2023-05-21T01:19:13.858Z,100494.81
2023-05-21T01:21:45.458Z,100488.63
2023-05-21T01:24:15.952Z,100493.66
2023-05-21T01:26:44.473Z,100497.56
2023-05-21T01:29:14.552Z,100484.38
2023-05-21T01:32:20.979Z,100488.75
2023-05-21T01:34:56.057Z,100496.59
2023-05-21T01:37:31.878Z,100486.31
2023-05-21T01:40:46.407Z,100485.22
2023-05-21T01:43:15.741Z,100485.69
2023-05-21T01:45:45.540Z,100479.81
2023-05-21T01:48:15.080Z,100480.78
2023-05-21T01:50:44.491Z,100486.38
2023-05-21T01:53:12.487Z,100477.06
2023-05-21T01:55:42.194Z,100477.53
2023-05-21T01:58:10.370Z,100484.38
2023-05-21T02:00:40.187Z,100477.28
2023-05-21T02:03:09.040Z,100471.84
2023-05-21T02:05:37.403Z,100469.44
2023-05-21T02:08:05.699Z,100470.00
2023-05-21T02:10:33.738Z,100462.50
2023-05-21T02:13:01.770Z,100466.78
2023-05-21T02:15:30.650Z,100464.31
2023-05-21T02:17:58.676Z,100460.03
2023-05-21T02:20:26.694Z,100459.91
2023-05-21T02:22:54.866Z,100463.81
2023-05-21T02:25:22.870Z,100470.13
2023-05-21T02:27:53.814Z,100455.97
2023-05-21T02:30:21.842Z,100453.81
2023-05-21T02:32:50.133Z,100467.84
2023-05-21T02:35:18.216Z,100461.69
2023-05-21T02:37:46.222Z,100450.59
2023-05-21T02:40:16.305Z,100453.19
2023-05-21T02:42:44.299Z,100434.31
2023-05-21T02:45:16.943Z,100450.75
2023-05-21T02:47:45.176Z,100438.38
2023-05-21T02:50:14.241Z,100437.06
2023-05-21T02:52:47.654Z,100443.97
2023-05-21T02:55:15.680Z,100433.25
2023-05-21T02:57:43.704Z,100429.94
2023-05-21T03:00:12.321Z,100429.66
2023-05-21T03:02:41.465Z,100433.44
2023-05-21T03:05:09.962Z,100419.06
2023-05-21T03:07:37.936Z,100422.31
2023-05-21T03:10:06.699Z,100429.81
2023-05-21T03:12:34.843Z,100421.66
2023-05-21T03:15:02.896Z,100427.66
2023-05-21T03:17:32.600Z,100427.41
2023-05-21T03:20:00.613Z,100422.38
2023-05-21T03:22:28.636Z,100424.72
2023-05-21T03:24:56.516Z,100425.84
2023-05-21T03:27:24.898Z,100424.06
2023-05-21T03:29:55.206Z,100423.09
2023-05-21T03:32:23.646Z,100423.03
2023-05-21T03:34:52.312Z,100418.03
2023-05-21T03:37:20.210Z,100412.81
2023-05-21T03:39:48.562Z,100409.69
2023-05-21T03:42:16.684Z,100412.31
2023-05-21T03:44:49.690Z,100414.84
2023-05-21T03:47:37.818Z,100412.06
2023-05-21T03:50:09.582Z,100409.16
2023-05-21T03:52:38.078Z,100420.25
2023-05-21T03:55:06.930Z,100418.63
2023-05-21T03:57:35.110Z,100422.38
2023-05-21T04:00:04.405Z,100412.94
2023-05-21T04:02:32.908Z,100415.81
2023-05-21T04:05:00.962Z,100415.50
2023-05-21T04:07:30.323Z,100418.31
2023-05-21T04:09:58.264Z,100425.63
2023-05-21T04:12:26.379Z,100424.47
2023-05-21T04:14:54.453Z,100428.22
2023-05-21T04:17:22.401Z,100431.47
2023-05-21T04:19:51.168Z,100424.50
2023-05-21T04:22:19.554Z,100426.81
2023-05-21T04:24:48.970Z,100426.78
2023-05-21T04:27:24.473Z,100431.16
2023-05-21T04:29:54.865Z,100433.44
2023-05-21T04:32:25.049Z,100425.09
2023-05-21T04:34:52.958Z,100431.66
2023-05-21T04:37:20.856Z,100428.88
2023-05-21T04:39:48.825Z,100427.53
2023-05-21T04:42:17.115Z,100428.88
2023-05-21T04:44:45.247Z,100430.47
2023-05-21T04:47:15.083Z,100421.03
2023-05-21T04:49:43.580Z,100438.59
2023-05-21T04:52:11.582Z,100436.50
2023-05-21T04:54:42.233Z,100427.19
2023-05-21T04:57:10.139Z,100427.00
2023-05-21T04:59:39.647Z,100434.47
2023-05-21T05:02:07.586Z,100435.91
2023-05-21T05:04:35.636Z,100437.22
2023-05-21T05:07:03.536Z,100428.72
2023-05-21T05:09:32.205Z,100437.81
2023-05-21T05:12:00.417Z,100433.75
2023-05-21T05:14:29.843Z,100444.97
2023-05-21T05:17:01.262Z,100448.47
2023-05-21T05:19:29.859Z,100441.00
2023-05-21T05:21:58.153Z,100448.47
2023-05-21T05:24:26.460Z,100445.56
2023-05-21T05:26:54.578Z,100437.75
2023-05-21T05:29:22.878Z,100438.38
2023-05-21T05:31:51.111Z,100438.06
2023-05-21T05:34:20.208Z,100445.50
2023-05-21T05:36:49.537Z,100437.84
2023-05-21T05:39:17.511Z,100441.25
2023-05-21T05:41:47.066Z,100441.06
2023-05-21T05:44:15.344Z,100445.66
2023-05-21T05:46:44.889Z,100428.25
2023-05-21T05:49:14.103Z,100443.19
2023-05-21T05:51:42.453Z,100447.06
2023-05-21T05:54:10.851Z,100455.69
2023-05-21T05:56:39.363Z,100447.38
2023-05-21T05:59:07.433Z,100447.66
2023-05-21T06:01:38.550Z,100454.13
2023-05-21T06:04:07.994Z,100453.06
2023-05-21T06:06:37.166Z,100444.69
2023-05-21T06:09:05.291Z,100451.97
2023-05-21T06:11:33.404Z,100449.19
2023-05-21T06:14:02.155Z,100448.38
2023-05-21T06:16:32.957Z,100449.34
2023-05-21T06:19:01.404Z,100446.75
2023-05-21T06:21:29.697Z,100446.31
2023-05-21T06:23:58.284Z,100450.81
2023-05-21T06:26:26.592Z,100453.13
2023-05-21T06:28:54.990Z,100456.38
2023-05-21T06:31:23.202Z,100452.44
2023-05-21T06:33:51.896Z,100459.25
2023-05-21T06:36:43.644Z,100452.16
2023-05-21T06:39:19.087Z,100449.81
2023-05-21T06:41:52.465Z,100441.09
2023-05-21T06:44:45.019Z,100443.91
2023-05-21T06:47:38.204Z,100454.25
2023-05-21T06:50:06.727Z,100456.97
2023-05-21T06:52:34.816Z,100460.25
2023-05-21T06:55:04.025Z,100461.13
2023-05-21T06:57:49.713Z,100451.53
2023-05-21T07:00:17.993Z,100460.34
2023-05-21T07:02:46.156Z,100458.06
2023-05-21T07:05:15.231Z,100457.88
2023-05-21T07:07:43.280Z,100467.16
2023-05-21T07:10:11.518Z,100464.50
2023-05-21T07:12:41.129Z,100465.97
2023-05-21T07:15:09.775Z,100462.84
2023-05-21T07:17:37.922Z,100455.84
2023-05-21T07:20:10.098Z,100463.97
2023-05-21T07:22:39.990Z,100459.53
2023-05-21T07:25:09.806Z,100465.69
2023-05-21T07:27:37.930Z,100459.06
2023-05-21T07:30:06.524Z,100456.66
2023-05-21T07:32:34.680Z,100444.38
2023-05-21T07:35:02.617Z,100445.72
2023-05-21T07:37:31.740Z,100444.22
2023-05-21T07:40:00.291Z,100457.84
2023-05-21T07:42:28.254Z,100461.25
2023-05-21T07:44:57.896Z,100467.88
2023-05-21T07:47:27.428Z,100462.50
2023-05-21T07:49:55.568Z,100460.97
2023-05-21T07:52:23.605Z,100453.50
2023-05-21T07:54:51.818Z,100467.88
2023-05-21T07:57:19.893Z,100463.81
2023-05-21T08:00:14.405Z,100474.28
2023-05-21T08:02:52.812Z,100472.41
2023-05-21T08:05:23.616Z,100465.53
2023-05-21T08:07:51.913Z,100467.66
2023-05-21T08:10:20.789Z,100476.09
2023-05-21T08:12:53.377Z,100480.19
2023-05-21T08:15:22.722Z,100475.38
2023-05-21T08:17:50.868Z,100472.28
2023-05-21T08:20:20.684Z,100473.59
2023-05-21T08:22:50.135Z,100482.09
2023-05-21T08:25:18.454Z,100475.56
2023-05-21T08:27:48.386Z,100469.56
2023-05-21T08:30:18.036Z,100477.19
2023-05-21T08:32:46.095Z,100485.06
2023-05-21T08:35:15.766Z,100487.25
2023-05-21T08:38:07.515Z,100479.91
2023-05-21T08:40:55.234Z,100485.25
2023-05-21T08:43:24.373Z,100484.41
2023-05-21T08:45:59.213Z,100484.81
2023-05-21T08:48:32.777Z,100483.84
2023-05-21T08:51:03.576Z,100492.06
2023-05-21T08:53:35.276Z,100480.69
2023-05-21T08:56:07.224Z,100472.97
2023-05-21T08:58:51.487Z,100480.41
2023-05-21T09:01:25.645Z,100478.25
2023-05-21T09:04:21.349Z,100469.41
2023-05-21T09:06:55.087Z,100469.34
2023-05-21T09:10:03.558Z,100484.25
2023-05-21T09:12:32.544Z,100470.22
2023-05-21T09:15:01.962Z,100470.06
2023-05-21T09:17:36.724Z,100468.97
2023-05-21T09:20:26.650Z,100471.09
2023-05-21T09:23:04.137Z,100485.72
2023-05-21T09:25:33.191Z,100478.47
2023-05-21T09:28:16.452Z,100480.59
2023-05-21T09:30:48.740Z,100467.44
2023-05-21T09:33:29.885Z,100475.84
2023-05-21T09:35:58.196Z,100471.66
2023-05-21T09:38:28.061Z,100468.41
2023-05-21T09:40:59.280Z,100470.25
2023-05-21T09:43:28.735Z,100467.75
2023-05-21T09:45:59.732Z,100477.81
2023-05-21T09:48:36.782Z,100468.94
2023-05-21T09:51:14.833Z,100472.16
2023-05-21T09:53:45.292Z,100464.28
2023-05-21T09:56:13.408Z,100461.00
2023-05-21T09:58:41.955Z,100465.59
2023-05-21T10:01:11.637Z,100481.78
2023-05-21T10:03:43.213Z,100477.00
2023-05-21T10:06:11.973Z,100473.88
2023-05-21T10:08:45.259Z,100483.91
2023-05-21T10:11:14.560Z,100472.31
2023-05-21T10:13:49.221Z,100478.41
2023-05-21T10:16:18.460Z,100485.72
2023-05-21T10:18:49.383Z,100472.53
2023-05-21T10:21:18.666Z,100470.97
2023-05-21T10:23:46.957Z,100481.06
2023-05-21T10:26:16.451Z,100476.53
2023-05-21T10:28:45.642Z,100469.47
2023-05-21T10:31:14.042Z,100467.50
2023-05-21T10:33:43.548Z,100469.28
2023-05-21T10:36:12.306Z,100468.91
2023-05-21T10:38:43.664Z,100463.41
2023-05-21T10:41:12.938Z,100464.97
2023-05-21T10:44:13.405Z,100468.66
2023-05-21T10:47:15.399Z,100467.53
2023-05-21T10:50:07.865Z,100467.88
2023-05-21T10:52:57.410Z,100460.38
2023-05-21T10:55:43.869Z,100464.06
2023-05-21T10:58:49.540Z,100447.63
2023-05-21T11:01:19.674Z,100453.16
2023-05-21T11:03:48.989Z,100456.88
2023-05-21T11:06:25.871Z,100448.31
2023-05-21T11:09:17.658Z,100453.13
2023-05-21T11:11:52.025Z,100448.41
2023-05-21T11:14:39.679Z,100446.09
2023-05-21T11:17:17.394Z,100447.72
2023-05-21T11:19:49.955Z,100442.97
2023-05-21T11:22:28.136Z,100436.38
2023-05-21T11:25:02.192Z,100440.88
2023-05-21T11:27:34.874Z,100452.53
2023-05-21T11:30:11.152Z,100444.47
2023-05-21T11:33:08.575Z,100440.91
2023-05-21T11:35:58.925Z,100435.69
2023-05-21T11:38:31.945Z,100440.53
2023-05-21T11:41:06.376Z,100437.34
2023-05-21T11:43:41.120Z,100439.03
2023-05-21T11:46:12.425Z,100440.53
2023-05-21T11:48:42.798Z,100440.66
2023-05-21T11:51:11.001Z,100433.03
2023-05-21T11:53:39.536Z,100441.88
2023-05-21T11:56:10.152Z,100420.69
2023-05-21T11:58:43.138Z,100432.38
2023-05-21T12:01:31.389Z,100438.41
2023-05-21T12:03:59.404Z,100427.56
2023-05-21T12:06:27.584Z,100421.56
2023-05-21T12:08:59.378Z,100424.81
2023-05-21T12:11:27.923Z,100431.25
2023-05-21T12:13:57.414Z,100426.41
2023-05-21T12:16:27.188Z,100419.56
2023-05-21T12:18:56.283Z,100419.56
2023-05-21T12:21:24.530Z,100420.81
2023-05-21T12:23:52.427Z,100422.81
2023-05-21T12:26:22.436Z,100416.00
2023-05-21T12:28:50.670Z,100413.19
2023-05-21T12:31:18.740Z,100420.00
2023-05-21T12:33:51.560Z,100431.63
2023-05-21T12:36:30.285Z,100424.03
2023-05-21T12:38:58.826Z,100412.75
2023-05-21T12:41:26.966Z,100426.41
2023-05-21T12:43:54.836Z,100414.38
2023-05-21T12:46:23.681Z,100404.34
2023-05-21T12:48:56.247Z,100405.56
2023-05-21T12:51:24.265Z,100422.41
2023-05-21T12:53:52.240Z,100413.16
2023-05-21T12:56:20.243Z,100423.63
2023-05-21T12:58:50.688Z,100407.16
2023-05-21T13:01:22.055Z,100420.00
2023-05-21T13:03:50.136Z,100409.53
2023-05-21T13:06:18.110Z,100397.44
2023-05-21T13:08:46.099Z,100404.69
2023-05-21T13:11:13.998Z,100394.63
2023-05-21T13:13:41.974Z,100402.28
2023-05-21T13:16:10.045Z,100404.69
2023-05-21T13:18:38.132Z,100400.75
2023-05-21T13:21:06.432Z,100402.34
2023-05-21T13:23:34.458Z,100397.50
2023-05-21T13:26:02.481Z,100393.47
2023-05-21T13:28:30.653Z,100393.53
2023-05-21T13:30:58.596Z,100382.28
2023-05-21T13:33:29.908Z,100393.53
2023-05-21T13:35:58.620Z,100397.53
2023-05-21T13:38:26.579Z,100395.91
2023-05-21T13:40:55.231Z,100392.31
2023-05-21T13:43:23.704Z,100392.75
2023-05-21T13:45:53.384Z,100403.94
2023-05-21T13:48:22.005Z,100394.66
2023-05-21T13:50:52.588Z,100400.66
2023-05-21T13:53:23.850Z,100407.09
2023-05-21T13:55:53.646Z,100387.44
2023-05-21T13:58:22.932Z,100416.78
2023-05-21T14:00:52.791Z,100409.53
2023-05-21T14:03:22.944Z,100384.56
2023-05-21T14:05:54.662Z,100374.94
2023-05-21T14:08:27.963Z,100386.91
2023-05-21T14:10:58.386Z,100379.50
2023-05-21T14:13:27.926Z,100392.81
2023-05-21T14:15:58.100Z,100389.22
2023-05-21T14:18:28.106Z,100387.25
2023-05-21T14:20:57.338Z,100392.50
2023-05-21T14:23:26.663Z,100377.50
2023-05-21T14:25:54.540Z,100377.19
2023-05-21T14:28:23.882Z,100385.22
2023-05-21T14:30:55.947Z,100375.69
2023-05-21T14:33:26.151Z,100377.63
2023-05-21T14:35:58.798Z,100375.69
2023-05-21T14:38:28.770Z,100380.09
2023-05-21T14:40:59.325Z,100380.50
2023-05-21T14:43:29.664Z,100380.47
2023-05-21T14:45:59.614Z,100381.25
2023-05-21T14:48:30.237Z,100387.69
2023-05-21T14:51:00.957Z,100382.06
2023-05-21T14:53:34.367Z,100375.75
2023-05-21T14:56:05.778Z,100369.31
2023-05-21T14:58:36.422Z,100372.56
2023-05-21T15:01:05.284Z,100381.38
2023-05-21T15:03:33.617Z,100376.16
2023-05-21T15:06:01.772Z,100373.31
2023-05-21T15:08:30.407Z,100372.94
2023-05-21T15:10:58.879Z,100364.13
2023-05-21T15:13:27.621Z,100368.16
2023-05-21T15:16:00.662Z,100368.13
2023-05-21T15:18:30.897Z,100364.53
2023-05-21T15:20:59.691Z,100374.97
2023-05-21T15:23:27.829Z,100372.19
2023-05-21T15:25:56.521Z,100362.13
2023-05-21T15:28:25.465Z,100359.75
2023-05-21T15:30:53.520Z,100368.63
2023-05-21T15:33:21.788Z,100371.81
2023-05-21T15:35:49.716Z,100368.22
2023-05-21T15:38:17.825Z,100360.22
2023-05-21T15:40:45.866Z,100363.00
2023-05-21T15:43:13.812Z,100361.81
2023-05-21T15:45:42.124Z,100360.59
2023-05-21T15:48:10.164Z,100370.22
2023-05-21T15:50:38.508Z,100370.63
2023-05-21T15:53:06.593Z,100362.13
2023-05-21T15:55:35.057Z,100362.94
2023-05-21T15:58:03.915Z,100358.97
2023-05-21T16:00:31.969Z,100364.16
2023-05-21T16:03:00.053Z,100362.94
2023-05-21T16:05:28.126Z,100358.09
2023-05-21T16:07:55.995Z,100356.91
2023-05-21T16:10:24.071Z,100363.72
2023-05-21T16:12:52.033Z,100359.69
2023-05-21T16:15:19.993Z,100368.53
2023-05-21T16:17:48.121Z,100362.47
2023-05-21T16:20:16.445Z,100364.09
2023-05-21T16:22:44.602Z,100352.47
2023-05-21T16:25:13.141Z,100357.69
2023-05-21T16:27:41.178Z,100363.69
2023-05-21T16:30:11.934Z,100349.66
2023-05-21T16:32:40.337Z,100356.88
2023-05-21T16:35:08.537Z,100362.09
2023-05-21T16:37:36.466Z,100355.25
2023-05-21T16:40:04.932Z,100357.63
2023-05-21T16:42:33.439Z,100359.59
2023-05-21T16:45:01.393Z,100348.75
2023-05-21T16:47:29.676Z,100355.94
2023-05-21T16:49:58.711Z,100359.16
2023-05-21T16:52:27.453Z,100352.78
2023-05-21T16:54:56.206Z,100358.38
2023-05-21T16:57:24.213Z,100352.34
2023-05-21T16:59:52.503Z,100351.16
2023-05-21T17:02:57.054Z,100359.56
2023-05-21T17:05:27.119Z,100346.25
2023-05-21T17:07:55.889Z,100357.06
2023-05-21T17:10:25.721Z,100352.25
2023-05-21T17:12:54.222Z,100357.88
2023-05-21T17:15:22.389Z,100350.59
2023-05-21T17:17:51.452Z,100355.41
2023-05-21T17:20:20.695Z,100351.34
2023-05-21T17:22:48.989Z,100353.72
2023-05-21T17:25:17.552Z,100364.97
2023-05-21T17:27:45.554Z,100363.38
2023-05-21T17:30:16.773Z,100365.00
2023-05-21T17:32:44.921Z,100362.56
2023-05-21T17:35:12.811Z,100362.56
2023-05-21T17:37:40.939Z,100372.03
2023-05-21T17:40:09.359Z,100371.22
2023-05-21T17:42:37.409Z,100368.44
2023-05-21T17:45:05.876Z,100369.28
2023-05-21T17:47:34.799Z,100376.41
2023-05-21T17:50:03.260Z,100385.97
2023-05-21T17:52:31.329Z,100385.56
2023-05-21T17:54:59.257Z,100377.03
2023-05-21T17:57:27.209Z,100386.69
2023-05-21T17:59:55.758Z,100388.72
2023-05-21T18:02:24.549Z,100377.44
2023-05-21T18:04:52.749Z,100385.56
2023-05-21T18:07:22.448Z,100387.91
2023-05-21T18:09:50.639Z,100395.81
2023-05-21T18:12:18.674Z,100394.13
2023-05-21T18:14:46.776Z,100390.06
2023-05-21T18:17:14.992Z,100387.97
2023-05-21T18:19:43.057Z,100394.41
2023-05-21T18:22:11.660Z,100398.69
2023-05-21T18:24:40.267Z,100399.06
2023-05-21T18:27:08.491Z,100403.78
2023-05-21T18:29:37.153Z,100393.72
2023-05-21T18:32:05.620Z,100400.81
2023-05-21T18:34:33.657Z,100399.03
2023-05-21T18:37:01.836Z,100400.88
2023-05-21T18:39:29.851Z,100409.31
2023-05-21T18:42:12.062Z,100419.19
2023-05-21T18:44:40.853Z,100417.19
2023-05-21T18:47:08.908Z,100416.69
2023-05-21T18:49:36.840Z,100423.44
2023-05-21T18:52:06.447Z,100426.88
2023-05-21T18:54:34.429Z,100424.41
2023-05-21T18:57:02.403Z,100437.97
2023-05-21T18:59:31.504Z,100424.56
2023-05-21T19:01:59.393Z,100431.59
2023-05-21T19:04:27.802Z,100446.59
2023-05-21T19:06:56.069Z,100445.34
2023-05-21T19:09:24.270Z,100450.19
2023-05-21T19:11:52.254Z,100466.94
2023-05-21T19:14:21.202Z,100469.69
2023-05-21T19:16:49.238Z,100474.28
2023-05-21T19:19:17.278Z,100479.44
2023-05-21T19:21:47.957Z,100474.00
2023-05-21T19:24:16.278Z,100486.72
2023-05-21T19:26:44.611Z,100485.47
2023-05-21T19:29:12.889Z,100493.72
2023-05-21T19:31:42.924Z,100496.25
2023-05-21T19:34:11.387Z,100494.50
2023-05-21T19:36:51.955Z,100497.25
2023-05-21T19:39:21.223Z,100499.63
2023-05-21T19:41:49.266Z,100501.63
2023-05-21T19:44:17.621Z,100501.94
2023-05-21T19:46:46.230Z,100497.16
2023-05-21T19:49:16.029Z,100500.69
2023-05-21T19:51:44.375Z,100518.16
2023-05-21T19:54:12.464Z,100515.22
2023-05-21T19:56:42.167Z,100513.47
2023-05-21T19:59:10.116Z,100528.94
2023-05-21T20:01:40.413Z,100530.03
2023-05-21T20:04:08.459Z,100527.91
2023-05-21T20:06:37.629Z,100539.94
2023-05-21T20:09:09.081Z,100539.41
2023-05-21T20:11:37.399Z,100540.94
2023-05-21T20:14:06.454Z,100542.91
2023-05-21T20:16:34.505Z,100544.81
2023-05-21T20:19:04.301Z,100532.78
2023-05-21T20:21:32.243Z,100538.44
2023-05-21T20:24:00.199Z,100538.97
2023-05-21T20:26:28.177Z,100528.66
2023-05-21T20:28:57.066Z,100527.47
2023-05-21T20:31:25.772Z,100528.00
2023-05-21T20:33:55.432Z,100535.66
2023-05-21T20:36:24.040Z,100534.75
2023-05-21T20:38:51.954Z,100542.13
2023-05-21T20:41:20.246Z,100534.59
2023-05-21T20:43:48.172Z,100535.13
2023-05-21T20:46:18.554Z,100534.31
2023-05-21T20:48:47.529Z,100537.56
2023-05-21T20:51:15.895Z,100535.13
2023-05-21T20:53:44.411Z,100536.81
2023-05-21T20:56:14.998Z,100538.91
2023-05-21T20:58:43.334Z,100536.81
2023-05-21T21:01:11.498Z,100536.38
2023-05-21T21:03:41.412Z,100526.75
2023-05-21T21:06:09.966Z,100538.03
2023-05-21T21:08:40.452Z,100532.63
2023-05-21T21:11:10.196Z,100537.50
2023-05-21T21:13:38.367Z,100534.88
2023-05-21T21:16:06.945Z,100533.78
2023-05-21T21:18:34.895Z,100531.94
2023-05-21T21:21:02.809Z,100533.94
2023-05-21T21:23:30.836Z,100539.66
2023-05-21T21:25:58.824Z,100540.25
2023-05-21T21:28:26.797Z,100542.59
2023-05-21T21:30:54.837Z,100539.72
2023-05-21T21:33:24.561Z,100542.94
2023-05-21T21:35:52.666Z,100537.81
2023-05-21T21:38:20.786Z,100540.97
2023-05-21T21:40:48.884Z,100536.47
2023-05-21T21:43:16.854Z,100543.00
2023-05-21T21:45:45.015Z,100535.03
2023-05-21T21:48:12.987Z,100530.84
2023-05-21T21:50:41.286Z,100533.53
2023-05-21T21:53:09.961Z,100542.81
2023-05-21T21:55:38.122Z,100539.78
2023-05-21T21:58:07.123Z,100538.41
2023-05-21T22:00:35.207Z,100531.72
2023-05-21T22:03:08.906Z,100526.75
2023-05-21T22:05:45.725Z,100532.09
2023-05-21T22:08:14.473Z,100532.66
2023-05-21T22:10:42.548Z,100536.59
2023-05-21T22:14:29.269Z,100548.63
2023-05-21T22:17:48.630Z,100548.16
2023-05-21T22:20:17.940Z,100550.72
2023-05-21T22:22:46.552Z,100537.06
2023-05-21T22:25:14.532Z,100540.41
2023-05-21T22:27:43.275Z,100546.88
2023-05-21T22:30:14.691Z,100544.34
2023-05-21T22:32:42.604Z,100537.28
2023-05-21T22:35:10.749Z,100541.56
2023-05-21T22:37:39.074Z,100539.84
2023-05-21T22:40:07.535Z,100544.47
2023-05-21T22:42:36.498Z,100547.47
2023-05-21T22:45:05.166Z,100548.41
2023-05-21T22:47:33.018Z,100552.69
2023-05-21T22:50:04.422Z,100541.91
2023-05-21T22:52:32.594Z,100547.47
2023-05-21T22:55:00.962Z,100548.50
2023-05-21T22:57:28.988Z,100540.06
2023-05-21T22:59:56.818Z,100547.81
2023-05-21T23:02:24.617Z,100547.72
2023-05-21T23:04:52.393Z,100545.38
2023-05-21T23:07:20.185Z,100536.59
2023-05-21T23:10:03.874Z,100547.94
2023-05-21T23:12:59.548Z,100550.25
2023-05-21T23:15:48.044Z,100554.53
2023-05-21T23:18:26.089Z,100546.66
2023-05-21T23:20:54.178Z,100545.16
2023-05-21T23:23:22.002Z,100547.69
2023-05-21T23:25:52.081Z,100546.53
2023-05-21T23:28:19.858Z,100550.56
2023-05-21T23:30:48.077Z,100541.16
2023-05-21T23:33:15.891Z,100550.91
2023-05-21T23:35:43.715Z,100548.75
2023-05-21T23:38:11.447Z,100549.78
2023-05-21T23:40:39.419Z,100555.72
2023-05-21T23:43:07.420Z,100553.63
2023-05-21T23:45:35.343Z,100539.44
2023-05-21T23:48:03.237Z,100544.38
2023-05-21T23:50:31.168Z,100538.22
2023-05-21T23:52:59.475Z,100533.66
2023-05-21T23:55:27.220Z,100540.94
2023-05-21T23:57:54.970Z,100541.94
